sensor_id;sensor_type;location;lat;lon;timestamp;P1;durP1;ratioP1;P2;durP2;ratioP2
22094;SDS011;24083;55.670;37.568;2022-12-13T00:01:18;8.95;;;4.75;;
22094;SDS011;24083;55.670;37.568;2022-12-13T00:03:44;8.73;;;5.45;;
22094;SDS011;24083;55.670;37.568;2022-12-13T00:06:13;9.23;;;5.65;;
22094;SDS011;24083;55.670;37.568;2022-12-13T00:08:39;9.02;;;5.40;;
22094;SDS011;24083;55.670;37.568;2022-12-13T00:11:07;8.75;;;5.10;;
22094;SDS011;24083;55.670;37.568;2022-12-13T00:13:35;8.02;;;4.07;;
22094;SDS011;24083;55.670;37.568;2022-12-13T00:16:01;8.02;;;4.28;;
22094;SDS011;24083;55.670;37.568;2022-12-13T00:18:32;9.73;;;5.90;;
22094;SDS011;24083;55.670;37.568;2022-12-13T00:21:03;12.18;;;6.88;;
22094;SDS011;24083;55.670;37.568;2022-12-13T00:23:37;11.27;;;6.40;;
22094;SDS011;24083;55.670;37.568;2022-12-13T00:26:10;12.45;;;6.63;;
22094;SDS011;24083;55.670;37.568;2022-12-13T00:28:40;10.95;;;6.30;;
22094;SDS011;24083;55.670;37.568;2022-12-13T00:31:06;10.43;;;6.05;;
22094;SDS011;24083;55.670;37.568;2022-12-13T00:33:32;9.23;;;5.22;;
22094;SDS011;24083;55.670;37.568;2022-12-13T00:36:02;10.43;;;5.97;;
22094;SDS011;24083;55.670;37.568;2022-12-13T00:38:29;10.55;;;6.10;;
22094;SDS011;24083;55.670;37.568;2022-12-13T00:40:54;12.50;;;6.65;;
22094;SDS011;24083;55.670;37.568;2022-12-13T00:43:23;11.32;;;6.13;;
22094;SDS011;24083;55.670;37.568;2022-12-13T00:48:14;11.50;;;6.22;;
22094;SDS011;24083;55.670;37.568;2022-12-13T00:50:41;12.45;;;6.47;;
22094;SDS011;24083;55.670;37.568;2022-12-13T00:53:08;10.40;;;6.07;;
22094;SDS011;24083;55.670;37.568;2022-12-13T00:55:43;11.40;;;6.50;;
22094;SDS011;24083;55.670;37.568;2022-12-13T00:58:10;12.13;;;7.00;;
22094;SDS011;24083;55.670;37.568;2022-12-13T01:00:36;10.93;;;6.43;;
22094;SDS011;24083;55.670;37.568;2022-12-13T01:03:05;12.77;;;7.55;;
22094;SDS011;24083;55.670;37.568;2022-12-13T01:05:46;12.73;;;6.60;;
22094;SDS011;24083;55.670;37.568;2022-12-13T01:08:14;12.52;;;6.38;;
22094;SDS011;24083;55.670;37.568;2022-12-13T01:10:41;12.30;;;7.25;;
22094;SDS011;24083;55.670;37.568;2022-12-13T01:13:22;12.07;;;6.88;;
22094;SDS011;24083;55.670;37.568;2022-12-13T01:15:48;12.38;;;6.68;;
22094;SDS011;24083;55.670;37.568;2022-12-13T01:18:16;12.15;;;7.38;;
22094;SDS011;24083;55.670;37.568;2022-12-13T01:20:43;11.48;;;6.47;;
22094;SDS011;24083;55.670;37.568;2022-12-13T01:23:23;11.98;;;6.75;;
22094;SDS011;24083;55.670;37.568;2022-12-13T01:25:50;13.30;;;6.85;;
22094;SDS011;24083;55.670;37.568;2022-12-13T01:28:16;12.40;;;6.80;;
22094;SDS011;24083;55.670;37.568;2022-12-13T01:30:41;13.20;;;7.20;;
22094;SDS011;24083;55.670;37.568;2022-12-13T01:35:42;11.68;;;6.20;;
22094;SDS011;24083;55.670;37.568;2022-12-13T01:38:14;11.98;;;6.20;;
22094;SDS011;24083;55.670;37.568;2022-12-13T01:40:47;12.05;;;6.47;;
22094;SDS011;24083;55.670;37.568;2022-12-13T01:43:23;11.80;;;6.43;;
22094;SDS011;24083;55.670;37.568;2022-12-13T01:45:50;12.25;;;6.38;;
22094;SDS011;24083;55.670;37.568;2022-12-13T01:48:18;12.23;;;6.40;;
22094;SDS011;24083;55.670;37.568;2022-12-13T01:50:51;12.88;;;7.10;;
22094;SDS011;24083;55.670;37.568;2022-12-13T01:53:26;13.40;;;7.03;;
22094;SDS011;24083;55.670;37.568;2022-12-13T01:56:02;12.13;;;6.82;;
22094;SDS011;24083;55.670;37.568;2022-12-13T02:01:01;13.07;;;6.85;;
22094;SDS011;24083;55.670;37.568;2022-12-13T02:03:28;14.15;;;7.63;;
22094;SDS011;24083;55.670;37.568;2022-12-13T02:08:29;14.13;;;7.53;;
22094;SDS011;24083;55.670;37.568;2022-12-13T02:10:56;12.50;;;6.47;;
22094;SDS011;24083;55.670;37.568;2022-12-13T02:13:24;12.85;;;7.22;;
22094;SDS011;24083;55.670;37.568;2022-12-13T02:16:07;12.68;;;7.03;;
22094;SDS011;24083;55.670;37.568;2022-12-13T02:24:34;15.27;;;7.82;;
22094;SDS011;24083;55.670;37.568;2022-12-13T02:27:38;15.40;;;8.55;;
22094;SDS011;24083;55.670;37.568;2022-12-13T02:30:28;12.63;;;6.38;;
22094;SDS011;24083;55.670;37.568;2022-12-13T02:46:04;11.32;;;5.93;;
22094;SDS011;24083;55.670;37.568;2022-12-13T02:48:45;11.18;;;6.20;;
22094;SDS011;24083;55.670;37.568;2022-12-13T02:54:35;8.07;;;3.75;;
22094;SDS011;24083;55.670;37.568;2022-12-13T02:57:02;10.98;;;5.60;;
22094;SDS011;24083;55.670;37.568;2022-12-13T02:59:35;14.02;;;7.78;;
22094;SDS011;24083;55.670;37.568;2022-12-13T03:16:42;8.80;;;5.15;;
22094;SDS011;24083;55.670;37.568;2022-12-13T03:19:10;11.13;;;6.15;;
22094;SDS011;24083;55.670;37.568;2022-12-13T03:21:40;5.03;;;2.72;;
22094;SDS011;24083;55.670;37.568;2022-12-13T03:24:08;12.32;;;6.03;;
22094;SDS011;24083;55.670;37.568;2022-12-13T03:26:36;11.45;;;6.43;;
22094;SDS011;24083;55.670;37.568;2022-12-13T03:29:03;9.52;;;5.40;;
22094;SDS011;24083;55.670;37.568;2022-12-13T03:31:29;9.27;;;5.45;;
22094;SDS011;24083;55.670;37.568;2022-12-13T03:33:57;6.40;;;3.60;;
22094;SDS011;24083;55.670;37.568;2022-12-13T03:38:53;10.48;;;5.72;;
22094;SDS011;24083;55.670;37.568;2022-12-13T03:41:22;8.43;;;5.05;;
22094;SDS011;24083;55.670;37.568;2022-12-13T03:44:06;9.45;;;5.10;;
22094;SDS011;24083;55.670;37.568;2022-12-13T03:46:34;10.48;;;6.15;;
22094;SDS011;24083;55.670;37.568;2022-12-13T03:49:00;11.35;;;6.88;;
22094;SDS011;24083;55.670;37.568;2022-12-13T03:51:29;11.82;;;6.15;;
22094;SDS011;24083;55.670;37.568;2022-12-13T03:53:56;10.98;;;6.05;;
22094;SDS011;24083;55.670;37.568;2022-12-13T03:56:23;13.13;;;5.75;;
22094;SDS011;24083;55.670;37.568;2022-12-13T03:58:53;11.95;;;6.35;;
22094;SDS011;24083;55.670;37.568;2022-12-13T04:01:22;12.35;;;6.75;;
22094;SDS011;24083;55.670;37.568;2022-12-13T04:03:49;12.27;;;7.22;;
22094;SDS011;24083;55.670;37.568;2022-12-13T04:06:15;14.30;;;7.68;;
22094;SDS011;24083;55.670;37.568;2022-12-13T04:08:42;12.23;;;7.32;;
22094;SDS011;24083;55.670;37.568;2022-12-13T04:11:08;13.15;;;6.72;;
22094;SDS011;24083;55.670;37.568;2022-12-13T04:16:45;10.38;;;6.18;;
22094;SDS011;24083;55.670;37.568;2022-12-13T04:22:22;17.27;;;8.35;;
22094;SDS011;24083;55.670;37.568;2022-12-13T04:24:48;11.98;;;6.82;;
22094;SDS011;24083;55.670;37.568;2022-12-13T04:27:16;17.25;;;8.60;;
22094;SDS011;24083;55.670;37.568;2022-12-13T04:29:43;16.02;;;8.70;;
22094;SDS011;24083;55.670;37.568;2022-12-13T04:32:15;15.25;;;9.18;;
22094;SDS011;24083;55.670;37.568;2022-12-13T04:34:41;20.08;;;9.88;;
22094;SDS011;24083;55.670;37.568;2022-12-13T04:37:10;14.20;;;8.30;;
22094;SDS011;24083;55.670;37.568;2022-12-13T04:39:36;16.50;;;8.77;;
22094;SDS011;24083;55.670;37.568;2022-12-13T04:42:14;18.08;;;9.43;;
22094;SDS011;24083;55.670;37.568;2022-12-13T04:47:36;19.10;;;8.85;;
22094;SDS011;24083;55.670;37.568;2022-12-13T04:50:03;16.48;;;8.85;;
22094;SDS011;24083;55.670;37.568;2022-12-13T04:52:29;15.23;;;8.07;;
22094;SDS011;24083;55.670;37.568;2022-12-13T04:59:16;11.90;;;7.38;;
22094;SDS011;24083;55.670;37.568;2022-12-13T05:01:42;15.70;;;9.05;;
22094;SDS011;24083;55.670;37.568;2022-12-13T05:04:12;11.20;;;6.22;;
22094;SDS011;24083;55.670;37.568;2022-12-13T05:06:38;15.95;;;8.30;;
22094;SDS011;24083;55.670;37.568;2022-12-13T05:11:58;16.25;;;10.05;;
22094;SDS011;24083;55.670;37.568;2022-12-13T05:14:23;9.55;;;5.75;;
22094;SDS011;24083;55.670;37.568;2022-12-13T05:16:49;9.40;;;5.70;;
22094;SDS011;24083;55.670;37.568;2022-12-13T05:19:16;13.93;;;7.88;;
22094;SDS011;24083;55.670;37.568;2022-12-13T05:21:41;16.58;;;9.00;;
22094;SDS011;24083;55.670;37.568;2022-12-13T05:24:08;15.15;;;7.57;;
22094;SDS011;24083;55.670;37.568;2022-12-13T05:26:35;11.95;;;6.32;;
22094;SDS011;24083;55.670;37.568;2022-12-13T05:29:02;15.13;;;8.50;;
22094;SDS011;24083;55.670;37.568;2022-12-13T05:31:32;14.55;;;7.97;;
22094;SDS011;24083;55.670;37.568;2022-12-13T05:34:00;14.20;;;6.50;;
22094;SDS011;24083;55.670;37.568;2022-12-13T05:36:27;16.92;;;8.73;;
22094;SDS011;24083;55.670;37.568;2022-12-13T05:38:54;20.70;;;8.85;;
22094;SDS011;24083;55.670;37.568;2022-12-13T05:41:22;12.75;;;8.30;;
22094;SDS011;24083;55.670;37.568;2022-12-13T05:50:41;16.85;;;8.27;;
22094;SDS011;24083;55.670;37.568;2022-12-13T05:53:24;16.40;;;8.63;;
22094;SDS011;24083;55.670;37.568;2022-12-13T06:07:11;17.13;;;8.02;;
22094;SDS011;24083;55.670;37.568;2022-12-13T06:12:55;17.98;;;10.00;;
22094;SDS011;24083;55.670;37.568;2022-12-13T06:15:20;16.40;;;8.48;;
22094;SDS011;24083;55.670;37.568;2022-12-13T06:17:47;17.27;;;8.88;;
22094;SDS011;24083;55.670;37.568;2022-12-13T06:20:13;18.83;;;9.35;;
22094;SDS011;24083;55.670;37.568;2022-12-13T06:22:40;16.75;;;9.15;;
22094;SDS011;24083;55.670;37.568;2022-12-13T06:25:06;17.55;;;9.25;;
22094;SDS011;24083;55.670;37.568;2022-12-13T06:27:35;18.50;;;9.45;;
22094;SDS011;24083;55.670;37.568;2022-12-13T06:30:03;16.42;;;9.43;;
22094;SDS011;24083;55.670;37.568;2022-12-13T06:32:31;18.17;;;9.77;;
22094;SDS011;24083;55.670;37.568;2022-12-13T06:34:57;20.48;;;9.85;;
22094;SDS011;24083;55.670;37.568;2022-12-13T06:37:23;14.38;;;8.40;;
22094;SDS011;24083;55.670;37.568;2022-12-13T06:39:49;15.50;;;8.88;;
22094;SDS011;24083;55.670;37.568;2022-12-13T06:42:16;17.33;;;9.40;;
22094;SDS011;24083;55.670;37.568;2022-12-13T06:44:45;14.85;;;8.70;;
22094;SDS011;24083;55.670;37.568;2022-12-13T06:47:11;14.60;;;8.57;;
22094;SDS011;24083;55.670;37.568;2022-12-13T06:49:37;15.07;;;8.38;;
22094;SDS011;24083;55.670;37.568;2022-12-13T06:52:04;13.18;;;7.70;;
22094;SDS011;24083;55.670;37.568;2022-12-13T06:54:31;10.85;;;5.65;;
22094;SDS011;24083;55.670;37.568;2022-12-13T06:56:57;12.77;;;7.13;;
22094;SDS011;24083;55.670;37.568;2022-12-13T06:59:23;14.50;;;8.52;;
22094;SDS011;24083;55.670;37.568;2022-12-13T07:01:49;14.23;;;7.72;;
22094;SDS011;24083;55.670;37.568;2022-12-13T07:04:15;14.90;;;8.77;;
22094;SDS011;24083;55.670;37.568;2022-12-13T07:06:40;13.00;;;7.70;;
22094;SDS011;24083;55.670;37.568;2022-12-13T07:09:06;15.88;;;8.82;;
22094;SDS011;24083;55.670;37.568;2022-12-13T07:11:32;16.83;;;8.50;;
22094;SDS011;24083;55.670;37.568;2022-12-13T07:14:05;16.08;;;9.15;;
22094;SDS011;24083;55.670;37.568;2022-12-13T07:16:32;10.80;;;6.57;;
22094;SDS011;24083;55.670;37.568;2022-12-13T07:18:58;12.55;;;7.60;;
22094;SDS011;24083;55.670;37.568;2022-12-13T07:21:26;15.63;;;8.85;;
22094;SDS011;24083;55.670;37.568;2022-12-13T07:23:53;15.45;;;8.52;;
22094;SDS011;24083;55.670;37.568;2022-12-13T07:58:10;9.13;;;5.88;;
22094;SDS011;24083;55.670;37.568;2022-12-13T08:00:39;16.30;;;8.05;;
22094;SDS011;24083;55.670;37.568;2022-12-13T08:03:06;16.10;;;8.05;;
22094;SDS011;24083;55.670;37.568;2022-12-13T08:09:45;18.45;;;7.95;;
22094;SDS011;24083;55.670;37.568;2022-12-13T08:12:11;15.43;;;7.60;;
22094;SDS011;24083;55.670;37.568;2022-12-13T08:14:37;14.77;;;7.22;;
22094;SDS011;24083;55.670;37.568;2022-12-13T08:17:13;13.77;;;7.07;;
22094;SDS011;24083;55.670;37.568;2022-12-13T08:22:13;14.00;;;7.28;;
22094;SDS011;24083;55.670;37.568;2022-12-13T08:24:39;16.60;;;7.80;;
22094;SDS011;24083;55.670;37.568;2022-12-13T08:27:05;16.38;;;8.63;;
22094;SDS011;24083;55.670;37.568;2022-12-13T08:29:31;13.52;;;7.80;;
22094;SDS011;24083;55.670;37.568;2022-12-13T08:32:17;16.33;;;7.50;;
22094;SDS011;24083;55.670;37.568;2022-12-13T08:37:38;12.77;;;6.55;;
22094;SDS011;24083;55.670;37.568;2022-12-13T08:47:14;12.18;;;6.80;;
22094;SDS011;24083;55.670;37.568;2022-12-13T08:50:00;10.65;;;5.55;;
22094;SDS011;24083;55.670;37.568;2022-12-13T08:52:39;11.18;;;6.65;;
22094;SDS011;24083;55.670;37.568;2022-12-13T09:09:12;2.47;;;1.80;;
22094;SDS011;24083;55.670;37.568;2022-12-13T09:11:38;4.10;;;2.50;;
22094;SDS011;24083;55.670;37.568;2022-12-13T09:14:32;3.70;;;1.65;;
22094;SDS011;24083;55.670;37.568;2022-12-13T09:18:26;3.33;;;2.20;;
22094;SDS011;24083;55.670;37.568;2022-12-13T09:20:53;2.95;;;1.88;;
22094;SDS011;24083;55.670;37.568;2022-12-13T09:38:04;3.45;;;1.85;;
22094;SDS011;24083;55.670;37.568;2022-12-13T09:40:31;5.15;;;2.67;;
22094;SDS011;24083;55.670;37.568;2022-12-13T09:49:39;5.40;;;2.83;;
22094;SDS011;24083;55.670;37.568;2022-12-13T09:52:10;5.55;;;3.13;;
22094;SDS011;24083;55.670;37.568;2022-12-13T09:54:39;7.88;;;3.15;;
22094;SDS011;24083;55.670;37.568;2022-12-13T09:57:48;6.88;;;3.25;;
22094;SDS011;24083;55.670;37.568;2022-12-13T09:59:56;6.15;;;3.63;;
22094;SDS011;24083;55.670;37.568;2022-12-13T10:02:24;6.80;;;3.42;;
22094;SDS011;24083;55.670;37.568;2022-12-13T10:05:10;6.50;;;3.50;;
22094;SDS011;24083;55.670;37.568;2022-12-13T10:10:49;7.30;;;4.75;;
22094;SDS011;24083;55.670;37.568;2022-12-13T10:15:53;3.10;;;1.75;;
22094;SDS011;24083;55.670;37.568;2022-12-13T10:18:41;8.88;;;5.13;;
22094;SDS011;24083;55.670;37.568;2022-12-13T10:24:11;7.90;;;4.95;;
22094;SDS011;24083;55.670;37.568;2022-12-13T10:26:43;10.68;;;6.65;;
22094;SDS011;24083;55.670;37.568;2022-12-13T10:29:10;5.15;;;3.22;;
22094;SDS011;24083;55.670;37.568;2022-12-13T10:31:45;7.93;;;4.40;;
22094;SDS011;24083;55.670;37.568;2022-12-13T10:42:16;8.32;;;3.80;;
22094;SDS011;24083;55.670;37.568;2022-12-13T10:44:43;15.88;;;7.25;;
22094;SDS011;24083;55.670;37.568;2022-12-13T10:47:16;8.90;;;6.15;;
22094;SDS011;24083;55.670;37.568;2022-12-13T10:49:51;12.63;;;6.80;;
22094;SDS011;24083;55.670;37.568;2022-12-13T10:58:39;12.40;;;7.30;;
22094;SDS011;24083;55.670;37.568;2022-12-13T11:11:51;12.57;;;6.22;;
22094;SDS011;24083;55.670;37.568;2022-12-13T11:17:37;11.88;;;5.93;;
22094;SDS011;24083;55.670;37.568;2022-12-13T11:24:30;13.35;;;6.15;;
22094;SDS011;24083;55.670;37.568;2022-12-13T11:53:33;19.83;;;9.15;;
22094;SDS011;24083;55.670;37.568;2022-12-13T12:01:17;11.88;;;7.15;;
22094;SDS011;24083;55.670;37.568;2022-12-13T12:09:24;12.52;;;7.68;;
22094;SDS011;24083;55.670;37.568;2022-12-13T12:11:59;14.77;;;8.77;;
22094;SDS011;24083;55.670;37.568;2022-12-13T12:17:14;17.05;;;8.15;;
22094;SDS011;24083;55.670;37.568;2022-12-13T12:19:46;11.10;;;6.90;;
22094;SDS011;24083;55.670;37.568;2022-12-13T12:43:39;10.95;;;6.65;;
22094;SDS011;24083;55.670;37.568;2022-12-13T12:58:12;20.00;;;9.73;;
22094;SDS011;24083;55.670;37.568;2022-12-13T13:04:34;15.40;;;8.73;;
22094;SDS011;24083;55.670;37.568;2022-12-13T13:07:27;15.50;;;7.47;;
22094;SDS011;24083;55.670;37.568;2022-12-13T13:09:59;17.45;;;10.10;;
22094;SDS011;24083;55.670;37.568;2022-12-13T13:12:42;17.10;;;9.55;;
22094;SDS011;24083;55.670;37.568;2022-12-13T13:18:54;17.17;;;10.13;;
22094;SDS011;24083;55.670;37.568;2022-12-13T13:46:31;17.73;;;9.18;;
22094;SDS011;24083;55.670;37.568;2022-12-13T14:14:11;13.73;;;8.00;;
22094;SDS011;24083;55.670;37.568;2022-12-13T15:06:16;12.48;;;6.82;;
22094;SDS011;24083;55.670;37.568;2022-12-13T15:09:19;12.88;;;7.85;;
22094;SDS011;24083;55.670;37.568;2022-12-13T15:11:45;14.88;;;8.80;;
22094;SDS011;24083;55.670;37.568;2022-12-13T15:14:37;10.82;;;5.85;;
22094;SDS011;24083;55.670;37.568;2022-12-13T15:24:37;12.57;;;7.75;;
22094;SDS011;24083;55.670;37.568;2022-12-13T15:27:08;15.27;;;9.73;;
22094;SDS011;24083;55.670;37.568;2022-12-13T15:31:03;15.20;;;8.80;;
22094;SDS011;24083;55.670;37.568;2022-12-13T15:33:51;14.43;;;7.70;;
22094;SDS011;24083;55.670;37.568;2022-12-13T15:36:25;12.98;;;8.93;;
22094;SDS011;24083;55.670;37.568;2022-12-13T15:42:15;15.60;;;9.52;;
22094;SDS011;24083;55.670;37.568;2022-12-13T15:59:42;16.92;;;10.73;;
22094;SDS011;24083;55.670;37.568;2022-12-13T16:09:14;17.13;;;10.25;;
22094;SDS011;24083;55.670;37.568;2022-12-13T16:15:59;16.27;;;8.63;;
22094;SDS011;24083;55.670;37.568;2022-12-13T16:25:21;18.63;;;10.85;;
22094;SDS011;24083;55.670;37.568;2022-12-13T16:27:48;20.20;;;11.23;;
22094;SDS011;24083;55.670;37.568;2022-12-13T16:33:30;16.92;;;9.95;;
22094;SDS011;24083;55.670;37.568;2022-12-13T16:35:57;17.02;;;10.30;;
22094;SDS011;24083;55.670;37.568;2022-12-13T16:38:29;17.45;;;10.40;;
22094;SDS011;24083;55.670;37.568;2022-12-13T16:43:54;18.30;;;11.02;;
22094;SDS011;24083;55.670;37.568;2022-12-13T16:46:23;19.67;;;10.88;;
22094;SDS011;24083;55.670;37.568;2022-12-13T16:48:56;19.55;;;11.35;;
22094;SDS011;24083;55.670;37.568;2022-12-13T16:51:22;20.08;;;10.85;;
22094;SDS011;24083;55.670;37.568;2022-12-13T17:02:45;19.60;;;11.75;;
22094;SDS011;24083;55.670;37.568;2022-12-13T17:05:18;22.85;;;12.85;;
22094;SDS011;24083;55.670;37.568;2022-12-13T17:13:50;21.77;;;11.93;;
22094;SDS011;24083;55.670;37.568;2022-12-13T17:16:19;21.63;;;13.25;;
22094;SDS011;24083;55.670;37.568;2022-12-13T17:18:56;21.17;;;12.88;;
22094;SDS011;24083;55.670;37.568;2022-12-13T17:24:38;21.08;;;12.95;;
22094;SDS011;24083;55.670;37.568;2022-12-13T17:27:08;14.75;;;8.32;;
22094;SDS011;24083;55.670;37.568;2022-12-13T17:29:36;19.60;;;11.25;;
22094;SDS011;24083;55.670;37.568;2022-12-13T17:35:16;25.48;;;14.35;;
22094;SDS011;24083;55.670;37.568;2022-12-13T17:41:14;21.40;;;13.10;;
22094;SDS011;24083;55.670;37.568;2022-12-13T17:51:02;20.88;;;12.63;;
22094;SDS011;24083;55.670;37.568;2022-12-13T17:53:35;22.50;;;13.35;;
22094;SDS011;24083;55.670;37.568;2022-12-13T17:59:44;21.13;;;12.82;;
22094;SDS011;24083;55.670;37.568;2022-12-13T18:02:11;20.63;;;11.68;;
22094;SDS011;24083;55.670;37.568;2022-12-13T18:07:23;23.17;;;13.40;;
22094;SDS011;24083;55.670;37.568;2022-12-13T18:14:59;25.60;;;13.05;;
22094;SDS011;24083;55.670;37.568;2022-12-13T18:21:20;24.23;;;14.10;;
22094;SDS011;24083;55.670;37.568;2022-12-13T18:26:41;26.15;;;13.07;;
22094;SDS011;24083;55.670;37.568;2022-12-13T18:32:02;27.95;;;16.38;;
22094;SDS011;24083;55.670;37.568;2022-12-13T18:39:45;27.55;;;15.30;;
22094;SDS011;24083;55.670;37.568;2022-12-13T18:42:14;32.63;;;18.17;;
22094;SDS011;24083;55.670;37.568;2022-12-13T18:44:40;29.05;;;16.58;;
22094;SDS011;24083;55.670;37.568;2022-12-13T18:47:08;30.35;;;18.13;;
22094;SDS011;24083;55.670;37.568;2022-12-13T18:49:34;29.92;;;18.20;;
22094;SDS011;24083;55.670;37.568;2022-12-13T18:52:18;31.25;;;19.00;;
22094;SDS011;24083;55.670;37.568;2022-12-13T18:55:02;23.95;;;14.07;;
22094;SDS011;24083;55.670;37.568;2022-12-13T19:04:35;22.65;;;13.23;;
22094;SDS011;24083;55.670;37.568;2022-12-13T19:07:02;20.50;;;12.38;;
22094;SDS011;24083;55.670;37.568;2022-12-13T19:21:38;8.77;;;6.00;;
22094;SDS011;24083;55.670;37.568;2022-12-13T19:25:23;8.85;;;5.93;;
22094;SDS011;24083;55.670;37.568;2022-12-13T19:31:18;7.10;;;5.20;;
22094;SDS011;24083;55.670;37.568;2022-12-13T19:39:57;7.70;;;5.70;;
22094;SDS011;24083;55.670;37.568;2022-12-13T19:42:39;6.47;;;4.50;;
22094;SDS011;24083;55.670;37.568;2022-12-13T19:48:08;6.65;;;4.70;;
22094;SDS011;24083;55.670;37.568;2022-12-13T19:50:34;7.70;;;5.05;;
22094;SDS011;24083;55.670;37.568;2022-12-13T19:53:09;6.60;;;4.47;;
22094;SDS011;24083;55.670;37.568;2022-12-13T19:55:40;6.22;;;4.50;;
22094;SDS011;24083;55.670;37.568;2022-12-13T19:58:07;6.30;;;3.90;;
22094;SDS011;24083;55.670;37.568;2022-12-13T20:03:35;7.50;;;4.43;;
22094;SDS011;24083;55.670;37.568;2022-12-13T20:06:22;6.38;;;4.93;;
22094;SDS011;24083;55.670;37.568;2022-12-13T20:08:54;6.65;;;5.00;;
22094;SDS011;24083;55.670;37.568;2022-12-13T20:14:12;8.20;;;5.32;;
22094;SDS011;24083;55.670;37.568;2022-12-13T20:22:48;9.68;;;5.93;;
22094;SDS011;24083;55.670;37.568;2022-12-13T20:32:18;8.88;;;5.82;;
22094;SDS011;24083;55.670;37.568;2022-12-13T20:34:45;8.80;;;6.07;;
22094;SDS011;24083;55.670;37.568;2022-12-13T20:44:23;11.20;;;6.60;;
22094;SDS011;24083;55.670;37.568;2022-12-13T20:46:59;11.55;;;7.03;;
22094;SDS011;24083;55.670;37.568;2022-12-13T21:11:27;9.80;;;6.20;;
22094;SDS011;24083;55.670;37.568;2022-12-13T21:17:21;8.73;;;6.18;;
22094;SDS011;24083;55.670;37.568;2022-12-13T21:19:47;9.85;;;6.47;;
22094;SDS011;24083;55.670;37.568;2022-12-13T21:22:22;9.40;;;6.53;;
22094;SDS011;24083;55.670;37.568;2022-12-13T21:25:14;10.23;;;6.53;;
22094;SDS011;24083;55.670;37.568;2022-12-13T21:36:52;11.52;;;7.85;;
22094;SDS011;24083;55.670;37.568;2022-12-13T21:39:19;11.75;;;7.60;;
22094;SDS011;24083;55.670;37.568;2022-12-13T21:48:16;13.90;;;7.72;;
22094;SDS011;24083;55.670;37.568;2022-12-13T21:50:48;12.13;;;7.57;;
22094;SDS011;24083;55.670;37.568;2022-12-13T21:53:14;13.55;;;8.32;;
22094;SDS011;24083;55.670;37.568;2022-12-13T21:59:59;12.43;;;7.72;;
22094;SDS011;24083;55.670;37.568;2022-12-13T22:02:26;11.15;;;6.95;;
22094;SDS011;24083;55.670;37.568;2022-12-13T22:19:44;8.95;;;5.05;;
22094;SDS011;24083;55.670;37.568;2022-12-13T22:22:10;12.07;;;6.97;;
22094;SDS011;24083;55.670;37.568;2022-12-13T22:30:23;12.65;;;8.18;;
22094;SDS011;24083;55.670;37.568;2022-12-13T22:41:04;12.18;;;7.68;;
22094;SDS011;24083;55.670;37.568;2022-12-13T23:44:11;10.55;;;7.28;;
22094;SDS011;24083;55.670;37.568;2022-12-13T23:59:11;12.27;;;7.32;;
